createdAt,value
2019-05-01T00:00:15.730Z,7.87
2019-05-01T00:03:05.284Z,8.93
2019-05-01T00:05:36.579Z,8.87
2019-05-01T00:08:06.220Z,9.07
2019-05-01T00:10:35.608Z,9.47
2019-05-01T00:13:06.784Z,8.87
2019-05-01T00:15:37.859Z,8.53
2019-05-01T00:18:06.675Z,9.23
2019-05-01T00:20:35.408Z,8.90
2019-05-01T00:23:04.798Z,9.37
2019-05-01T00:25:33.659Z,9.50
2019-05-01T00:28:02.478Z,8.57
2019-05-01T00:30:31.447Z,9.03
2019-05-01T00:33:00.270Z,8.90
2019-05-01T00:35:30.114Z,8.87
2019-05-01T00:37:58.748Z,8.27
2019-05-01T00:40:27.421Z,7.90
2019-05-01T00:42:56.055Z,8.23
2019-05-01T00:45:24.699Z,8.80
2019-05-01T00:47:53.626Z,8.03
2019-05-01T00:50:22.358Z,7.93
2019-05-01T00:52:51.026Z,7.77
2019-05-01T00:55:38.221Z,8.60
2019-05-01T00:58:25.174Z,8.63
2019-05-01T01:01:09.643Z,8.63
2019-05-01T01:03:39.077Z,7.90
2019-05-01T01:06:09.710Z,8.33
2019-05-01T01:08:38.392Z,8.53
2019-05-01T01:11:07.384Z,9.13
2019-05-01T01:13:36.068Z,9.60
2019-05-01T01:16:04.728Z,9.33
2019-05-01T01:18:33.647Z,9.27
2019-05-01T01:21:02.399Z,9.13
2019-05-01T01:23:31.535Z,8.87
2019-05-01T01:26:00.218Z,7.63
2019-05-01T01:28:28.975Z,7.10
2019-05-01T01:30:57.747Z,8.03
2019-05-01T01:33:26.503Z,7.60
2019-05-01T01:35:55.173Z,7.70
2019-05-01T01:38:23.969Z,7.83
2019-05-01T01:40:53.074Z,8.00
2019-05-01T01:43:53.479Z,8.57
2019-05-01T01:46:24.326Z,9.43
2019-05-01T01:48:53.339Z,8.40
2019-05-01T01:51:22.443Z,9.27
2019-05-01T01:53:52.895Z,8.60
2019-05-01T01:56:21.826Z,9.40
2019-05-01T01:58:51.059Z,9.70
2019-05-01T02:01:41.961Z,9.67
2019-05-01T02:04:22.882Z,9.93
2019-05-01T02:06:51.621Z,10.50
2019-05-01T02:09:21.003Z,10.17
2019-05-01T02:11:49.829Z,10.43
2019-05-01T02:14:18.539Z,9.53
2019-05-01T02:16:47.518Z,10.03
2019-05-01T02:19:16.497Z,10.23
2019-05-01T02:21:45.159Z,9.90
2019-05-01T02:24:14.038Z,11.03
2019-05-01T02:26:46.408Z,10.60
2019-05-01T02:29:23.715Z,10.07
2019-05-01T02:31:53.632Z,10.67
2019-05-01T02:34:23.694Z,11.30
2019-05-01T02:36:54.280Z,10.87
2019-05-01T02:39:24.408Z,11.77
2019-05-01T02:41:55.980Z,11.50
2019-05-01T02:44:28.844Z,11.43
2019-05-01T02:47:00.858Z,11.60
2019-05-01T02:49:35.740Z,11.70
2019-05-01T02:52:05.400Z,12.20
2019-05-01T02:54:36.195Z,10.33
2019-05-01T02:57:15.172Z,12.00
2019-05-01T02:59:47.725Z,11.87
2019-05-01T03:02:17.286Z,12.40
2019-05-01T03:04:46.776Z,12.30
2019-05-01T03:07:17.294Z,12.83
2019-05-01T03:09:46.587Z,12.53
2019-05-01T03:12:18.247Z,12.27
2019-05-01T03:14:49.579Z,13.87
2019-05-01T03:17:40.903Z,13.00
2019-05-01T03:20:23.214Z,13.10
2019-05-01T03:23:10.261Z,14.13
2019-05-01T03:25:39.478Z,13.93
2019-05-01T03:28:08.439Z,13.90
2019-05-01T03:30:37.170Z,14.80
2019-05-01T03:33:06.545Z,14.20
2019-05-01T03:35:35.874Z,13.33
2019-05-01T03:38:04.665Z,13.93
2019-05-01T03:40:33.471Z,13.97
2019-05-01T03:43:02.296Z,13.63
2019-05-01T03:45:34.191Z,14.70
2019-05-01T03:48:01.594Z,13.90
2019-05-01T03:50:30.333Z,13.87
2019-05-01T03:52:59.637Z,14.20
2019-05-01T03:55:28.481Z,14.23
2019-05-01T03:57:57.286Z,15.13
2019-05-01T04:00:39.174Z,15.30
2019-05-01T04:03:27.985Z,15.17
2019-05-01T04:05:56.805Z,14.67
2019-05-01T04:08:25.562Z,14.70
2019-05-01T04:10:55.569Z,15.10
2019-05-01T04:13:24.527Z,14.67
2019-05-01T04:15:54.923Z,15.37
2019-05-01T04:18:24.221Z,15.97
2019-05-01T04:20:54.032Z,15.30
2019-05-01T04:23:23.102Z,14.97
2019-05-01T04:25:52.098Z,16.77
2019-05-01T04:28:40.094Z,15.40
2019-05-01T04:31:17.302Z,15.90
2019-05-01T04:33:47.224Z,16.20
2019-05-01T04:36:22.236Z,16.07
2019-05-01T04:38:51.555Z,15.97
2019-05-01T04:41:20.437Z,15.67
2019-05-01T04:43:49.547Z,15.57
2019-05-01T04:46:18.453Z,16.23
2019-05-01T04:48:47.295Z,16.57
2019-05-01T04:51:16.174Z,15.20
2019-05-01T04:53:45.226Z,15.60
2019-05-01T04:56:14.424Z,14.97
2019-05-01T04:58:43.260Z,16.73
2019-05-01T05:01:12.272Z,15.90
2019-05-01T05:03:41.072Z,16.77
2019-05-01T05:06:10.910Z,15.60
2019-05-01T05:08:39.763Z,16.70
2019-05-01T05:11:13.803Z,15.80
2019-05-01T05:14:04.065Z,16.23
2019-05-01T05:16:48.297Z,15.10
2019-05-01T05:19:17.048Z,15.70
2019-05-01T05:21:45.843Z,15.70
2019-05-01T05:24:14.778Z,15.13
2019-05-01T05:26:43.581Z,15.37
2019-05-01T05:29:12.723Z,16.00
2019-05-01T05:31:43.118Z,15.00
2019-05-01T05:34:13.790Z,15.53
2019-05-01T05:36:44.814Z,15.17
2019-05-01T05:39:22.625Z,15.77
2019-05-01T05:41:52.004Z,15.63
2019-05-01T05:44:20.752Z,15.60
2019-05-01T05:46:49.800Z,16.00
2019-05-01T05:49:18.684Z,15.37
2019-05-01T05:52:02.760Z,15.33
2019-05-01T05:54:46.796Z,14.70
2019-05-01T05:57:23.589Z,13.93
2019-05-01T06:00:06.822Z,14.20
2019-05-01T06:02:47.942Z,13.53
2019-05-01T06:05:50.992Z,14.13
2019-05-01T06:08:24.355Z,14.07
2019-05-01T06:11:14.335Z,14.60
2019-05-01T06:14:10.262Z,13.93
2019-05-01T06:16:52.069Z,13.70
2019-05-01T06:19:45.792Z,15.47
2019-05-01T06:22:40.709Z,15.50
2019-05-01T06:25:23.104Z,15.83
2019-05-01T06:27:52.060Z,16.17
2019-05-01T06:30:20.818Z,15.37
2019-05-01T06:32:49.602Z,17.00
2019-05-01T06:35:18.595Z,17.73
2019-05-01T06:38:02.296Z,16.40
2019-05-01T06:40:40.597Z,16.70
2019-05-01T06:43:20.217Z,23.30
2019-05-01T06:45:53.885Z,18.63
2019-05-01T06:48:24.138Z,17.57
2019-05-01T06:51:00.779Z,17.50
2019-05-01T06:53:29.580Z,17.60
2019-05-01T06:55:58.898Z,18.93
2019-05-01T06:58:27.718Z,19.43
2019-05-01T07:00:56.416Z,19.87
2019-05-01T07:03:25.295Z,20.70
2019-05-01T07:05:55.967Z,19.97
2019-05-01T07:08:29.537Z,20.07
2019-05-01T07:10:56.967Z,21.37
2019-05-01T07:13:25.824Z,19.97
2019-05-01T07:15:58.730Z,20.40
2019-05-01T07:18:29.093Z,20.83
2019-05-01T07:20:55.773Z,20.90
2019-05-01T07:23:24.710Z,22.43
2019-05-01T07:25:54.142Z,21.00
2019-05-01T07:28:24.075Z,21.33
2019-05-01T07:31:01.579Z,22.23
2019-05-01T07:33:30.664Z,23.30
2019-05-01T07:35:59.486Z,23.57
2019-05-01T07:38:28.425Z,20.80
2019-05-01T07:40:58.717Z,22.27
2019-05-01T07:43:49.923Z,22.03
2019-05-01T07:46:24.379Z,21.87
2019-05-01T07:48:53.363Z,21.83
2019-05-01T07:51:23.174Z,22.77
2019-05-01T07:53:52.432Z,21.63
2019-05-01T07:56:22.797Z,23.37
2019-05-01T07:58:53.395Z,25.13
2019-05-01T08:01:35.601Z,24.27
2019-05-01T08:04:04.348Z,23.57
2019-05-01T08:06:33.082Z,23.50
2019-05-01T08:09:01.790Z,25.10
2019-05-01T08:11:30.534Z,24.47
2019-05-01T08:14:07.317Z,21.07
2019-05-01T08:16:32.338Z,20.97
2019-05-01T08:19:23.706Z,20.33
2019-05-01T08:22:03.200Z,20.43
2019-05-01T08:24:32.430Z,18.45
2019-05-01T08:27:01.450Z,20.88
2019-05-01T08:30:01.174Z,18.92
2019-05-01T08:32:38.945Z,19.52
2019-05-01T08:35:09.478Z,18.67
2019-05-01T08:37:38.211Z,16.87
2019-05-01T08:40:07.549Z,18.07
2019-05-01T08:42:37.638Z,18.35
2019-05-01T08:45:23.539Z,17.62
2019-05-01T08:48:03.288Z,18.12
2019-05-01T08:50:31.934Z,18.00
2019-05-01T08:53:00.632Z,16.48
2019-05-01T08:55:29.271Z,16.82
2019-05-01T08:57:57.943Z,16.82
2019-05-01T09:00:30.683Z,16.85
2019-05-01T09:03:07.783Z,15.55
2019-05-01T09:05:30.380Z,16.83
2019-05-01T09:07:57.970Z,16.85
2019-05-01T09:10:26.656Z,15.88
2019-05-01T09:12:55.688Z,16.80
2019-05-01T09:15:24.777Z,15.68
2019-05-01T09:17:53.810Z,16.60
2019-05-01T09:20:22.514Z,16.67
2019-05-01T09:22:51.580Z,17.05
2019-05-01T09:25:24.935Z,16.48
2019-05-01T09:28:05.996Z,16.23
2019-05-01T09:30:42.932Z,16.30
2019-05-01T09:33:11.633Z,17.07
2019-05-01T09:35:45.210Z,17.15
2019-05-01T09:38:11.953Z,15.63
2019-05-01T09:40:40.691Z,15.33
2019-05-01T09:43:09.394Z,14.93
2019-05-01T09:45:38.026Z,14.80
2019-05-01T09:48:07.775Z,13.10
2019-05-01T09:50:39.960Z,14.50
2019-05-01T09:53:16.617Z,14.03
2019-05-01T09:55:51.340Z,15.47
2019-05-01T09:58:20.106Z,14.90
2019-05-01T10:00:52.620Z,14.07
2019-05-01T10:03:20.416Z,14.40
2019-05-01T10:05:49.172Z,13.33
2019-05-01T10:08:17.851Z,13.70
2019-05-01T10:10:46.782Z,12.73
2019-05-01T10:13:17.738Z,13.28
2019-05-01T10:15:46.261Z,12.37
2019-05-01T10:18:14.911Z,13.43
2019-05-01T10:20:43.602Z,14.43
2019-05-01T10:23:13.064Z,14.45
2019-05-01T10:25:47.939Z,14.47
2019-05-01T10:28:27.243Z,14.58
2019-05-01T10:31:07.063Z,13.83
2019-05-01T10:33:40.403Z,14.00
2019-05-01T10:36:28.224Z,13.18
2019-05-01T10:38:56.870Z,14.85
2019-05-01T10:41:25.900Z,15.08
2019-05-01T10:43:54.582Z,13.78
2019-05-01T10:46:23.347Z,16.02
2019-05-01T10:48:51.988Z,14.35
2019-05-01T10:51:20.671Z,15.35
2019-05-01T10:53:49.594Z,14.63
2019-05-01T10:56:18.254Z,14.40
2019-05-01T10:58:46.918Z,13.68
2019-05-01T11:01:24.269Z,13.65
2019-05-01T11:03:53.195Z,13.75
2019-05-01T11:06:22.028Z,13.72
2019-05-01T11:08:50.989Z,14.25
2019-05-01T11:11:19.731Z,13.43
2019-05-01T11:13:48.407Z,12.88
2019-05-01T11:16:17.212Z,13.13
2019-05-01T11:18:46.050Z,12.65
2019-05-01T11:21:14.895Z,13.32
2019-05-01T11:23:43.548Z,12.78
2019-05-01T11:26:12.310Z,12.28
2019-05-01T11:28:40.998Z,11.83
2019-05-01T11:31:11.899Z,12.00
2019-05-01T11:34:00.025Z,11.95
2019-05-01T11:36:38.478Z,13.22
2019-05-01T11:39:35.932Z,12.70
2019-05-01T11:42:09.024Z,11.88
2019-05-01T11:44:37.667Z,12.85
2019-05-01T11:47:06.463Z,11.30
2019-05-01T11:49:35.126Z,10.98
2019-05-01T11:52:03.917Z,9.85
2019-05-01T11:54:32.830Z,8.73
2019-05-01T11:57:01.497Z,9.60
2019-05-01T11:59:32.640Z,8.35
2019-05-01T12:02:02.585Z,9.23
2019-05-01T12:04:31.660Z,9.40
2019-05-01T12:07:00.566Z,8.20
2019-05-01T12:09:29.271Z,7.78
2019-05-01T12:12:01.443Z,8.30
2019-05-01T12:14:30.130Z,8.80
2019-05-01T12:17:14.919Z,7.10
2019-05-01T12:19:43.619Z,7.58
2019-05-01T12:22:12.371Z,7.53
2019-05-01T12:24:41.026Z,8.05
2019-05-01T12:27:09.866Z,6.90
2019-05-01T12:29:38.963Z,7.47
2019-05-01T12:32:07.610Z,7.90
2019-05-01T12:34:36.655Z,7.53
2019-05-01T12:37:16.711Z,7.87
2019-05-01T12:39:45.754Z,8.07
2019-05-01T12:42:15.884Z,6.63
2019-05-01T12:44:44.561Z,7.07
2019-05-01T12:47:29.660Z,6.57
2019-05-01T12:49:58.498Z,6.77
2019-05-01T12:53:01.707Z,6.70
2019-05-01T12:55:44.266Z,7.00
2019-05-01T12:58:12.947Z,6.83
2019-05-01T13:00:45.787Z,6.97
2019-05-01T13:03:14.535Z,7.03
2019-05-01T13:05:43.299Z,6.97
2019-05-01T13:08:12.424Z,7.20
2019-05-01T13:10:41.246Z,6.43
2019-05-01T13:13:11.264Z,5.93
2019-05-01T13:15:40.214Z,7.03
2019-05-01T13:18:09.028Z,6.17
2019-05-01T13:20:37.713Z,5.77
2019-05-01T13:23:06.478Z,6.67
2019-05-01T13:25:35.352Z,6.53
2019-05-01T13:28:20.306Z,6.13
2019-05-01T13:30:57.183Z,5.53
2019-05-01T13:33:25.851Z,5.67
2019-05-01T13:35:54.887Z,5.27
2019-05-01T13:38:23.523Z,5.57
2019-05-01T13:40:52.342Z,5.17
2019-05-01T13:43:21.364Z,4.57
2019-05-01T13:45:50.362Z,4.80
2019-05-01T13:48:19.019Z,5.27
2019-05-01T13:50:47.773Z,4.70
2019-05-01T13:53:16.446Z,4.60
2019-05-01T13:55:45.106Z,4.60
2019-05-01T13:58:14.007Z,4.63
2019-05-01T14:00:42.706Z,4.23
2019-05-01T14:03:11.338Z,4.70
2019-05-01T14:05:40.012Z,5.40
2019-05-01T14:08:08.963Z,4.37
2019-05-01T14:10:37.746Z,4.30
2019-05-01T14:13:06.395Z,4.43
2019-05-01T14:15:35.101Z,3.67
2019-05-01T14:18:03.811Z,3.83
2019-05-01T14:20:43.108Z,3.90
2019-05-01T14:23:19.151Z,3.43
2019-05-01T14:26:02.999Z,3.70
2019-05-01T14:28:32.535Z,3.03
2019-05-01T14:31:01.640Z,3.80
2019-05-01T14:33:30.375Z,3.60
2019-05-01T14:35:59.061Z,3.47
2019-05-01T14:38:27.786Z,2.93
2019-05-01T14:40:56.567Z,3.30
2019-05-01T14:43:25.323Z,2.73
2019-05-01T14:45:55.967Z,3.10
2019-05-01T14:48:24.472Z,3.10
2019-05-01T14:50:53.132Z,2.47
2019-05-01T14:53:21.824Z,3.03
2019-05-01T14:55:50.534Z,2.87
2019-05-01T14:58:19.174Z,2.57
2019-05-01T15:00:48.249Z,2.90
2019-05-01T15:03:17.064Z,2.63
2019-05-01T15:05:45.800Z,2.70
2019-05-01T15:08:14.509Z,2.40
2019-05-01T15:10:43.314Z,2.60
2019-05-01T15:13:22.187Z,2.30
2019-05-01T15:16:01.903Z,2.30
2019-05-01T15:19:02.143Z,2.70
2019-05-01T15:21:30.948Z,2.50
2019-05-01T15:23:59.692Z,2.93
2019-05-01T15:26:28.374Z,2.47
2019-05-01T15:28:57.114Z,2.40
2019-05-01T15:31:25.806Z,1.87
2019-05-01T15:33:54.515Z,2.30
2019-05-01T15:36:23.262Z,2.20
2019-05-01T15:38:51.915Z,2.03
2019-05-01T15:41:52.325Z,2.33
2019-05-01T15:44:30.274Z,2.67
2019-05-01T15:46:59.077Z,3.20
2019-05-01T15:49:28.234Z,2.50
2019-05-01T15:51:56.934Z,2.60
2019-05-01T15:54:25.707Z,2.20
2019-05-01T15:56:54.423Z,2.13
2019-05-01T15:59:23.371Z,2.53
2019-05-01T16:01:52.008Z,2.23
2019-05-01T16:04:20.733Z,2.10
2019-05-01T16:06:49.504Z,2.10
2019-05-01T16:09:18.242Z,2.23
2019-05-01T16:12:12.495Z,2.53
2019-05-01T16:14:42.430Z,2.37
2019-05-01T16:17:11.361Z,2.60
2019-05-01T16:19:40.010Z,2.20
2019-05-01T16:22:08.751Z,2.13
2019-05-01T16:24:37.483Z,2.50
2019-05-01T16:27:06.283Z,1.77
2019-05-01T16:29:34.983Z,2.00
2019-05-01T16:32:03.745Z,2.00
2019-05-01T16:34:32.520Z,2.30
2019-05-01T16:37:01.196Z,2.40
2019-05-01T16:39:52.079Z,1.90
2019-05-01T16:42:34.002Z,2.30
2019-05-01T16:45:03.502Z,2.13
2019-05-01T16:47:32.169Z,1.80
2019-05-01T16:50:00.902Z,2.00
2019-05-01T16:52:31.800Z,1.50
2019-05-01T16:55:00.988Z,1.83
2019-05-01T16:57:29.668Z,1.73
2019-05-01T16:59:58.424Z,1.27
2019-05-01T17:02:39.967Z,1.47
2019-05-01T17:05:20.046Z,1.30
2019-05-01T17:07:57.918Z,1.50
2019-05-01T17:10:32.131Z,1.70
2019-05-01T17:13:01.158Z,1.63
2019-05-01T17:15:35.759Z,1.70
2019-05-01T17:18:04.870Z,1.93
2019-05-01T17:20:33.553Z,1.80
2019-05-01T17:23:05.380Z,1.60
2019-05-01T17:25:33.116Z,1.67
2019-05-01T17:28:03.022Z,1.50
2019-05-01T17:30:45.848Z,2.07
2019-05-01T17:33:19.822Z,2.13
2019-05-01T17:35:45.354Z,1.50
2019-05-01T17:38:14.347Z,2.10
2019-05-01T17:40:47.500Z,1.90
2019-05-01T17:43:15.352Z,1.77
2019-05-01T17:45:44.372Z,2.30
2019-05-01T17:48:13.030Z,2.27
2019-05-01T17:50:41.895Z,1.93
2019-05-01T17:53:10.860Z,2.30
2019-05-01T17:55:39.518Z,2.33
2019-05-01T17:58:09.374Z,2.27
2019-05-01T18:01:00.342Z,2.43
2019-05-01T18:03:47.059Z,2.50
2019-05-01T18:06:18.404Z,2.60
2019-05-01T18:08:47.061Z,2.50
2019-05-01T18:11:15.871Z,2.40
2019-05-01T18:13:44.694Z,2.50
2019-05-01T18:16:14.009Z,3.07
2019-05-01T18:18:42.938Z,2.23
2019-05-01T18:21:12.168Z,3.10
2019-05-01T18:23:59.171Z,2.60
2019-05-01T18:26:46.583Z,2.93
2019-05-01T18:29:25.178Z,3.37
2019-05-01T18:31:53.877Z,2.57
2019-05-01T18:34:22.623Z,3.00
2019-05-01T18:36:59.637Z,2.80
2019-05-01T18:39:32.224Z,3.00
2019-05-01T18:42:03.105Z,3.43
2019-05-01T18:44:31.947Z,3.70
2019-05-01T18:47:00.736Z,3.37
2019-05-01T18:49:29.553Z,3.13
2019-05-01T18:51:58.204Z,3.17
2019-05-01T18:54:30.499Z,3.57
2019-05-01T18:56:57.236Z,4.07
2019-05-01T18:59:26.027Z,4.30
2019-05-01T19:01:54.814Z,5.57
2019-05-01T19:04:24.714Z,4.50
2019-05-01T19:06:53.584Z,3.57
2019-05-01T19:09:29.710Z,3.40
2019-05-01T19:11:53.344Z,3.60
2019-05-01T19:14:23.532Z,3.60
2019-05-01T19:16:53.310Z,3.60
2019-05-01T19:19:22.134Z,4.20
2019-05-01T19:21:50.956Z,3.97
2019-05-01T19:24:19.796Z,3.70
2019-05-01T19:26:48.492Z,3.87
2019-05-01T19:29:19.262Z,3.40
2019-05-01T19:31:48.010Z,3.77
2019-05-01T19:34:16.702Z,3.80
2019-05-01T19:36:46.394Z,3.97
2019-05-01T19:39:15.722Z,3.20
2019-05-01T19:41:49.077Z,3.30
2019-05-01T19:44:18.959Z,4.10
2019-05-01T19:46:45.574Z,3.57
2019-05-01T19:49:14.330Z,3.50
2019-05-01T19:51:42.973Z,3.43
2019-05-01T19:54:11.827Z,3.50
2019-05-01T19:56:40.808Z,3.37
2019-05-01T19:59:09.681Z,3.73
2019-05-01T20:01:44.461Z,4.07
2019-05-01T20:04:13.170Z,3.40
2019-05-01T20:06:40.208Z,3.87
2019-05-01T20:09:09.512Z,3.83
2019-05-01T20:11:38.223Z,3.73
2019-05-01T20:14:07.060Z,3.73
2019-05-01T20:16:35.843Z,3.70
2019-05-01T20:19:04.524Z,3.40
2019-05-01T20:21:33.257Z,3.80
2019-05-01T20:24:04.385Z,4.07
2019-05-01T20:26:34.083Z,3.80
2019-05-01T20:29:05.024Z,3.50
2019-05-01T20:31:33.850Z,3.47
2019-05-01T20:34:02.920Z,3.43
2019-05-01T20:36:32.002Z,3.23
2019-05-01T20:39:00.679Z,3.37
2019-05-01T20:41:29.999Z,3.67
2019-05-01T20:43:58.662Z,3.47
2019-05-01T20:46:28.082Z,3.60
2019-05-01T20:49:01.386Z,3.40
2019-05-01T20:51:27.507Z,3.60
2019-05-01T20:53:56.408Z,3.43
2019-05-01T20:56:30.574Z,3.47
2019-05-01T20:59:04.959Z,3.70
2019-05-01T21:01:33.770Z,3.30
2019-05-01T21:04:21.707Z,3.40
2019-05-01T21:07:10.413Z,3.67
2019-05-01T21:09:47.685Z,4.20
2019-05-01T21:12:11.765Z,3.93
2019-05-01T21:14:45.409Z,3.87
2019-05-01T21:17:13.685Z,3.10
2019-05-01T21:19:43.949Z,3.83
2019-05-01T21:22:14.284Z,3.60
2019-05-01T21:24:44.333Z,4.47
2019-05-01T21:27:13.630Z,3.80
2019-05-01T21:29:44.365Z,4.60
2019-05-01T21:32:13.619Z,4.10
2019-05-01T21:34:43.553Z,4.57
2019-05-01T21:37:12.287Z,4.03
2019-05-01T21:39:41.216Z,4.10
2019-05-01T21:42:11.553Z,4.10
2019-05-01T21:44:40.308Z,4.37
2019-05-01T21:47:09.007Z,3.77
2019-05-01T21:49:37.660Z,4.80
2019-05-01T21:52:07.440Z,4.93
2019-05-01T21:56:02.303Z,4.83
2019-05-01T21:58:33.296Z,5.00
2019-05-01T22:01:01.198Z,5.53
2019-05-01T22:03:29.910Z,5.80
2019-05-01T22:05:58.552Z,6.47
2019-05-01T22:08:27.885Z,5.93
2019-05-01T22:10:57.481Z,6.60
2019-05-01T22:13:27.119Z,6.30
2019-05-01T22:16:01.457Z,7.23
2019-05-01T22:18:49.320Z,7.03
2019-05-01T22:21:30.295Z,7.13
2019-05-01T22:24:19.330Z,7.50
2019-05-01T22:26:58.535Z,7.63
2019-05-01T22:29:32.419Z,7.47
2019-05-01T22:32:08.767Z,7.63
2019-05-01T22:34:47.704Z,7.47
2019-05-01T22:37:16.406Z,8.00
2019-05-01T22:39:47.923Z,6.93
2019-05-01T22:42:16.929Z,6.97
2019-05-01T22:44:45.728Z,7.03
2019-05-01T22:47:15.148Z,7.23
2019-05-01T22:49:44.928Z,8.13
2019-05-01T22:52:13.633Z,7.93
2019-05-01T22:54:44.836Z,8.03
2019-05-01T22:57:13.580Z,8.10
2019-05-01T22:59:42.225Z,7.80
2019-05-01T23:02:18.872Z,7.70
2019-05-01T23:04:48.401Z,8.63
2019-05-01T23:07:18.632Z,7.43
2019-05-01T23:09:47.347Z,8.53
2019-05-01T23:12:15.994Z,8.00
2019-05-01T23:14:45.546Z,8.10
2019-05-01T23:17:42.470Z,8.50
2019-05-01T23:20:12.090Z,8.00
2019-05-01T23:22:41.025Z,7.83
2019-05-01T23:25:09.831Z,8.03
2019-05-01T23:27:38.505Z,7.73
2019-05-01T23:30:07.972Z,9.33
2019-05-01T23:32:36.686Z,7.93
2019-05-01T23:35:06.098Z,8.30
2019-05-01T23:37:34.940Z,8.60
2019-05-01T23:40:04.204Z,8.60
2019-05-01T23:42:32.854Z,8.90
2019-05-01T23:45:01.507Z,9.30
2019-05-01T23:47:30.495Z,9.50
2019-05-01T23:49:59.310Z,8.67
2019-05-01T23:52:27.975Z,9.20
2019-05-01T23:54:56.620Z,9.00
2019-05-01T23:59:59.991Z,8.60
